sensor_id;sensor_type;location;lat;lon;timestamp;pressure;altitude;pressure_sealevel;temperature
15626;BMP180;7912;51.376;6.126;2023-05-07T00:01:25;101269.00;;;19.40
15626;BMP180;7912;51.376;6.126;2023-05-07T00:03:52;101269.00;;;19.30
15626;BMP180;7912;51.376;6.126;2023-05-07T00:06:32;101266.00;;;19.30
15626;BMP180;7912;51.376;6.126;2023-05-07T00:09:00;101263.00;;;19.30
15626;BMP180;7912;51.376;6.126;2023-05-07T00:11:28;101264.00;;;19.30
15626;BMP180;7912;51.376;6.126;2023-05-07T00:13:55;101269.00;;;19.30
15626;BMP180;7912;51.376;6.126;2023-05-07T00:16:23;101272.00;;;19.30
15626;BMP180;7912;51.376;6.126;2023-05-07T00:18:50;101270.00;;;19.20
15626;BMP180;7912;51.376;6.126;2023-05-07T00:21:18;101260.00;;;19.20
15626;BMP180;7912;51.376;6.126;2023-05-07T00:23:45;101272.00;;;19.20
15626;BMP180;7912;51.376;6.126;2023-05-07T00:26:12;101274.00;;;19.20
15626;BMP180;7912;51.376;6.126;2023-05-07T00:28:40;101273.00;;;19.20
15626;BMP180;7912;51.376;6.126;2023-05-07T00:31:27;101266.00;;;19.20
15626;BMP180;7912;51.376;6.126;2023-05-07T00:33:54;101265.00;;;19.20
15626;BMP180;7912;51.376;6.126;2023-05-07T00:36:21;101258.00;;;19.20
15626;BMP180;7912;51.376;6.126;2023-05-07T00:38:49;101254.00;;;19.10
15626;BMP180;7912;51.376;6.126;2023-05-07T00:41:16;101258.00;;;19.10
15626;BMP180;7912;51.376;6.126;2023-05-07T00:43:44;101256.00;;;19.10
15626;BMP180;7912;51.376;6.126;2023-05-07T00:46:13;101253.00;;;19.10
15626;BMP180;7912;51.376;6.126;2023-05-07T00:48:40;101244.00;;;19.10
15626;BMP180;7912;51.376;6.126;2023-05-07T00:51:09;101255.00;;;19.10
15626;BMP180;7912;51.376;6.126;2023-05-07T00:53:59;101245.00;;;19.10
15626;BMP180;7912;51.376;6.126;2023-05-07T00:56:28;101245.00;;;19.10
15626;BMP180;7912;51.376;6.126;2023-05-07T00:58:55;101246.00;;;19.10
15626;BMP180;7912;51.376;6.126;2023-05-07T01:01:42;101244.00;;;19.10
15626;BMP180;7912;51.376;6.126;2023-05-07T01:04:09;101244.00;;;19.10
15626;BMP180;7912;51.376;6.126;2023-05-07T01:07:15;101251.00;;;19.10
15626;BMP180;7912;51.376;6.126;2023-05-07T01:09:43;101238.00;;;19.10
15626;BMP180;7912;51.376;6.126;2023-05-07T01:12:30;101244.00;;;19.10
15626;BMP180;7912;51.376;6.126;2023-05-07T01:14:58;101248.00;;;19.10
15626;BMP180;7912;51.376;6.126;2023-05-07T01:17:26;101241.00;;;19.10
15626;BMP180;7912;51.376;6.126;2023-05-07T01:19:56;101244.00;;;19.10
15626;BMP180;7912;51.376;6.126;2023-05-07T01:22:33;101247.00;;;19.20
15626;BMP180;7912;51.376;6.126;2023-05-07T01:25:00;101248.00;;;19.20
15626;BMP180;7912;51.376;6.126;2023-05-07T01:27:28;101243.00;;;19.20
15626;BMP180;7912;51.376;6.126;2023-05-07T01:29:56;101229.00;;;19.20
15626;BMP180;7912;51.376;6.126;2023-05-07T01:32:38;101236.00;;;19.20
15626;BMP180;7912;51.376;6.126;2023-05-07T01:35:12;101241.00;;;19.30
15626;BMP180;7912;51.376;6.126;2023-05-07T01:38:18;101232.00;;;19.20
15626;BMP180;7912;51.376;6.126;2023-05-07T01:40:45;101232.00;;;19.30
15626;BMP180;7912;51.376;6.126;2023-05-07T01:43:13;101228.00;;;19.30
15626;BMP180;7912;51.376;6.126;2023-05-07T01:45:41;101222.00;;;19.30
15626;BMP180;7912;51.376;6.126;2023-05-07T01:48:11;101222.00;;;19.30
15626;BMP180;7912;51.376;6.126;2023-05-07T01:50:40;101223.00;;;19.30
15626;BMP180;7912;51.376;6.126;2023-05-07T01:53:08;101214.00;;;19.30
15626;BMP180;7912;51.376;6.126;2023-05-07T01:55:35;101218.00;;;19.20
15626;BMP180;7912;51.376;6.126;2023-05-07T01:58:04;101225.00;;;19.20
15626;BMP180;7912;51.376;6.126;2023-05-07T02:03:54;101217.00;;;19.00
15626;BMP180;7912;51.376;6.126;2023-05-07T02:06:22;101215.00;;;19.00
15626;BMP180;7912;51.376;6.126;2023-05-07T02:08:50;101216.00;;;19.00
15626;BMP180;7912;51.376;6.126;2023-05-07T02:11:17;101208.00;;;18.90
15626;BMP180;7912;51.376;6.126;2023-05-07T02:13:45;101215.00;;;18.90
15626;BMP180;7912;51.376;6.126;2023-05-07T02:16:12;101214.00;;;18.80
15626;BMP180;7912;51.376;6.126;2023-05-07T02:18:41;101211.00;;;18.70
15626;BMP180;7912;51.376;6.126;2023-05-07T02:21:08;101221.00;;;18.70
15626;BMP180;7912;51.376;6.126;2023-05-07T02:23:37;101218.00;;;18.70
15626;BMP180;7912;51.376;6.126;2023-05-07T02:26:05;101214.00;;;18.60
15626;BMP180;7912;51.376;6.126;2023-05-07T02:28:32;101214.00;;;18.60
15626;BMP180;7912;51.376;6.126;2023-05-07T02:31:05;101212.00;;;18.50
15626;BMP180;7912;51.376;6.126;2023-05-07T02:33:33;101213.00;;;18.50
15626;BMP180;7912;51.376;6.126;2023-05-07T02:36:09;101202.00;;;18.50
15626;BMP180;7912;51.376;6.126;2023-05-07T02:38:37;101203.00;;;18.40
15626;BMP180;7912;51.376;6.126;2023-05-07T02:41:05;101204.00;;;18.40
15626;BMP180;7912;51.376;6.126;2023-05-07T02:43:32;101217.00;;;18.40
15626;BMP180;7912;51.376;6.126;2023-05-07T02:46:04;101211.00;;;18.40
15626;BMP180;7912;51.376;6.126;2023-05-07T02:48:32;101224.00;;;18.40
15626;BMP180;7912;51.376;6.126;2023-05-07T02:51:39;101227.00;;;18.40
15626;BMP180;7912;51.376;6.126;2023-05-07T02:54:06;101233.00;;;18.40
15626;BMP180;7912;51.376;6.126;2023-05-07T02:56:34;101223.00;;;18.40
15626;BMP180;7912;51.376;6.126;2023-05-07T02:59:01;101239.00;;;18.40
15626;BMP180;7912;51.376;6.126;2023-05-07T03:01:28;101227.00;;;18.40
15626;BMP180;7912;51.376;6.126;2023-05-07T03:03:56;101230.00;;;18.40
15626;BMP180;7912;51.376;6.126;2023-05-07T03:06:23;101233.00;;;18.40
15626;BMP180;7912;51.376;6.126;2023-05-07T03:08:50;101224.00;;;18.40
15626;BMP180;7912;51.376;6.126;2023-05-07T03:11:38;101231.00;;;18.40
15626;BMP180;7912;51.376;6.126;2023-05-07T03:17:48;101232.00;;;18.40
15626;BMP180;7912;51.376;6.126;2023-05-07T03:20:15;101227.00;;;18.40
15626;BMP180;7912;51.376;6.126;2023-05-07T03:22:43;101223.00;;;18.50
15626;BMP180;7912;51.376;6.126;2023-05-07T03:25:10;101224.00;;;18.50
15626;BMP180;7912;51.376;6.126;2023-05-07T03:27:38;101220.00;;;18.50
15626;BMP180;7912;51.376;6.126;2023-05-07T03:30:06;101219.00;;;18.50
15626;BMP180;7912;51.376;6.126;2023-05-07T03:32:35;101220.00;;;18.50
15626;BMP180;7912;51.376;6.126;2023-05-07T03:35:03;101219.00;;;18.50
15626;BMP180;7912;51.376;6.126;2023-05-07T03:37:31;101211.00;;;18.50
15626;BMP180;7912;51.376;6.126;2023-05-07T03:39:58;101200.00;;;18.50
15626;BMP180;7912;51.376;6.126;2023-05-07T03:42:25;101208.00;;;18.50
15626;BMP180;7912;51.376;6.126;2023-05-07T03:44:52;101209.00;;;18.50
15626;BMP180;7912;51.376;6.126;2023-05-07T03:47:38;101214.00;;;18.50
15626;BMP180;7912;51.376;6.126;2023-05-07T03:50:12;101211.00;;;18.50
15626;BMP180;7912;51.376;6.126;2023-05-07T03:52:39;101206.00;;;18.50
15626;BMP180;7912;51.376;6.126;2023-05-07T03:55:08;101211.00;;;18.50
15626;BMP180;7912;51.376;6.126;2023-05-07T03:57:35;101208.00;;;18.50
15626;BMP180;7912;51.376;6.126;2023-05-07T04:00:03;101213.00;;;18.50
15626;BMP180;7912;51.376;6.126;2023-05-07T04:02:32;101211.00;;;18.40
15626;BMP180;7912;51.376;6.126;2023-05-07T04:05:00;101223.00;;;18.40
15626;BMP180;7912;51.376;6.126;2023-05-07T04:07:27;101211.00;;;18.50
15626;BMP180;7912;51.376;6.126;2023-05-07T04:09:54;101222.00;;;18.50
15626;BMP180;7912;51.376;6.126;2023-05-07T04:12:22;101231.00;;;18.50
15626;BMP180;7912;51.376;6.126;2023-05-07T04:14:49;101226.00;;;18.50
15626;BMP180;7912;51.376;6.126;2023-05-07T04:17:17;101218.00;;;18.50
15626;BMP180;7912;51.376;6.126;2023-05-07T04:19:44;101218.00;;;18.50
15626;BMP180;7912;51.376;6.126;2023-05-07T04:22:12;101233.00;;;18.40
15626;BMP180;7912;51.376;6.126;2023-05-07T04:24:39;101226.00;;;18.40
15626;BMP180;7912;51.376;6.126;2023-05-07T04:27:07;101236.00;;;18.40
15626;BMP180;7912;51.376;6.126;2023-05-07T04:29:34;101227.00;;;18.40
15626;BMP180;7912;51.376;6.126;2023-05-07T04:32:02;101225.00;;;18.40
15626;BMP180;7912;51.376;6.126;2023-05-07T04:34:29;101224.00;;;18.50
15626;BMP180;7912;51.376;6.126;2023-05-07T04:36:59;101224.00;;;18.50
15626;BMP180;7912;51.376;6.126;2023-05-07T04:39:26;101232.00;;;18.50
15626;BMP180;7912;51.376;6.126;2023-05-07T04:41:53;101234.00;;;18.50
15626;BMP180;7912;51.376;6.126;2023-05-07T04:44:21;101236.00;;;18.60
15626;BMP180;7912;51.376;6.126;2023-05-07T04:46:51;101222.00;;;18.60
15626;BMP180;7912;51.376;6.126;2023-05-07T04:49:18;101225.00;;;18.70
15626;BMP180;7912;51.376;6.126;2023-05-07T04:51:45;101221.00;;;18.70
15626;BMP180;7912;51.376;6.126;2023-05-07T04:54:13;101226.00;;;18.70
15626;BMP180;7912;51.376;6.126;2023-05-07T04:56:40;101227.00;;;18.70
15626;BMP180;7912;51.376;6.126;2023-05-07T04:59:07;101221.00;;;18.80
15626;BMP180;7912;51.376;6.126;2023-05-07T05:01:35;101235.00;;;18.80
15626;BMP180;7912;51.376;6.126;2023-05-07T05:04:02;101233.00;;;18.80
15626;BMP180;7912;51.376;6.126;2023-05-07T05:06:29;101237.00;;;18.90
15626;BMP180;7912;51.376;6.126;2023-05-07T05:08:57;101239.00;;;18.90
15626;BMP180;7912;51.376;6.126;2023-05-07T05:11:24;101234.00;;;19.00
15626;BMP180;7912;51.376;6.126;2023-05-07T05:13:52;101218.00;;;19.10
15626;BMP180;7912;51.376;6.126;2023-05-07T05:16:19;101234.00;;;19.10
15626;BMP180;7912;51.376;6.126;2023-05-07T05:18:47;101229.00;;;19.20
15626;BMP180;7912;51.376;6.126;2023-05-07T05:21:15;101230.00;;;19.20
15626;BMP180;7912;51.376;6.126;2023-05-07T05:23:43;101225.00;;;19.30
15626;BMP180;7912;51.376;6.126;2023-05-07T05:26:10;101220.00;;;19.30
15626;BMP180;7912;51.376;6.126;2023-05-07T05:28:38;101229.00;;;19.40
15626;BMP180;7912;51.376;6.126;2023-05-07T05:31:06;101218.00;;;19.50
15626;BMP180;7912;51.376;6.126;2023-05-07T05:33:34;101233.00;;;19.50
15626;BMP180;7912;51.376;6.126;2023-05-07T05:36:01;101248.00;;;19.60
15626;BMP180;7912;51.376;6.126;2023-05-07T05:38:31;101245.00;;;19.60
15626;BMP180;7912;51.376;6.126;2023-05-07T05:40:58;101240.00;;;19.70
15626;BMP180;7912;51.376;6.126;2023-05-07T05:43:26;101234.00;;;19.80
15626;BMP180;7912;51.376;6.126;2023-05-07T05:46:07;101244.00;;;19.90
15626;BMP180;7912;51.376;6.126;2023-05-07T05:48:52;101250.00;;;19.90
15626;BMP180;7912;51.376;6.126;2023-05-07T05:51:22;101260.00;;;20.00
15626;BMP180;7912;51.376;6.126;2023-05-07T05:58:00;101253.00;;;20.10
15626;BMP180;7912;51.376;6.126;2023-05-07T06:00:28;101250.00;;;20.20
15626;BMP180;7912;51.376;6.126;2023-05-07T06:02:59;101252.00;;;20.30
15626;BMP180;7912;51.376;6.126;2023-05-07T06:05:26;101264.00;;;20.40
15626;BMP180;7912;51.376;6.126;2023-05-07T06:07:53;101257.00;;;20.60
15626;BMP180;7912;51.376;6.126;2023-05-07T06:10:21;101258.00;;;20.70
15626;BMP180;7912;51.376;6.126;2023-05-07T06:12:48;101258.00;;;20.80
15626;BMP180;7912;51.376;6.126;2023-05-07T06:15:15;101266.00;;;20.80
15626;BMP180;7912;51.376;6.126;2023-05-07T06:17:43;101268.00;;;20.90
15626;BMP180;7912;51.376;6.126;2023-05-07T06:20:10;101264.00;;;21.00
15626;BMP180;7912;51.376;6.126;2023-05-07T06:22:38;101262.00;;;21.00
15626;BMP180;7912;51.376;6.126;2023-05-07T06:25:06;101257.00;;;21.00
15626;BMP180;7912;51.376;6.126;2023-05-07T06:27:33;101263.00;;;21.10
15626;BMP180;7912;51.376;6.126;2023-05-07T06:30:00;101257.00;;;21.10
15626;BMP180;7912;51.376;6.126;2023-05-07T06:32:28;101258.00;;;21.20
15626;BMP180;7912;51.376;6.126;2023-05-07T06:34:55;101250.00;;;21.30
15626;BMP180;7912;51.376;6.126;2023-05-07T06:37:25;101260.00;;;21.40
15626;BMP180;7912;51.376;6.126;2023-05-07T06:39:53;101256.00;;;21.60
15626;BMP180;7912;51.376;6.126;2023-05-07T06:46:02;101261.00;;;22.00
15626;BMP180;7912;51.376;6.126;2023-05-07T06:48:29;101265.00;;;22.20
15626;BMP180;7912;51.376;6.126;2023-05-07T06:50:57;101263.00;;;22.40
15626;BMP180;7912;51.376;6.126;2023-05-07T06:53:24;101261.00;;;22.70
15626;BMP180;7912;51.376;6.126;2023-05-07T06:55:52;101261.00;;;22.90
15626;BMP180;7912;51.376;6.126;2023-05-07T06:58:20;101262.00;;;23.00
15626;BMP180;7912;51.376;6.126;2023-05-07T07:00:47;101268.00;;;23.00
15626;BMP180;7912;51.376;6.126;2023-05-07T07:07:24;101271.00;;;23.20
15626;BMP180;7912;51.376;6.126;2023-05-07T07:09:51;101273.00;;;23.40
15626;BMP180;7912;51.376;6.126;2023-05-07T07:16:28;101273.00;;;24.10
15626;BMP180;7912;51.376;6.126;2023-05-07T07:18:56;101273.00;;;24.20
15626;BMP180;7912;51.376;6.126;2023-05-07T07:21:23;101274.00;;;24.30
15626;BMP180;7912;51.376;6.126;2023-05-07T07:23:50;101271.00;;;24.40
15626;BMP180;7912;51.376;6.126;2023-05-07T07:26:17;101273.00;;;24.50
15626;BMP180;7912;51.376;6.126;2023-05-07T07:28:46;101278.00;;;24.70
15626;BMP180;7912;51.376;6.126;2023-05-07T07:31:13;101275.00;;;25.00
15626;BMP180;7912;51.376;6.126;2023-05-07T07:33:41;101290.00;;;25.10
15626;BMP180;7912;51.376;6.126;2023-05-07T07:36:09;101285.00;;;25.20
15626;BMP180;7912;51.376;6.126;2023-05-07T07:38:36;101289.00;;;25.30
15626;BMP180;7912;51.376;6.126;2023-05-07T07:41:03;101296.00;;;25.30
15626;BMP180;7912;51.376;6.126;2023-05-07T07:43:31;101295.00;;;25.40
15626;BMP180;7912;51.376;6.126;2023-05-07T07:45:58;101294.00;;;25.50
15626;BMP180;7912;51.376;6.126;2023-05-07T07:48:25;101289.00;;;25.50
15626;BMP180;7912;51.376;6.126;2023-05-07T07:50:53;101292.00;;;25.60
15626;BMP180;7912;51.376;6.126;2023-05-07T07:53:20;101289.00;;;25.70
15626;BMP180;7912;51.376;6.126;2023-05-07T07:55:47;101294.00;;;25.80
15626;BMP180;7912;51.376;6.126;2023-05-07T07:58:14;101295.00;;;25.80
15626;BMP180;7912;51.376;6.126;2023-05-07T08:00:44;101302.00;;;25.90
15626;BMP180;7912;51.376;6.126;2023-05-07T08:03:12;101291.00;;;26.00
15626;BMP180;7912;51.376;6.126;2023-05-07T08:05:39;101291.00;;;26.20
15626;BMP180;7912;51.376;6.126;2023-05-07T08:08:07;101302.00;;;26.40
15626;BMP180;7912;51.376;6.126;2023-05-07T08:10:35;101297.00;;;26.60
15626;BMP180;7912;51.376;6.126;2023-05-07T08:13:05;101297.00;;;26.80
15626;BMP180;7912;51.376;6.126;2023-05-07T08:15:33;101299.00;;;27.00
15626;BMP180;7912;51.376;6.126;2023-05-07T08:18:02;101297.00;;;27.20
15626;BMP180;7912;51.376;6.126;2023-05-07T08:20:29;101296.00;;;27.30
15626;BMP180;7912;51.376;6.126;2023-05-07T08:22:56;101298.00;;;27.60
15626;BMP180;7912;51.376;6.126;2023-05-07T08:25:24;101291.00;;;27.80
15626;BMP180;7912;51.376;6.126;2023-05-07T08:36:11;101294.00;;;28.30
15626;BMP180;7912;51.376;6.126;2023-05-07T08:38:38;101301.00;;;28.60
15626;BMP180;7912;51.376;6.126;2023-05-07T08:41:10;101298.00;;;28.80
15626;BMP180;7912;51.376;6.126;2023-05-07T08:43:40;101300.00;;;29.40
15626;BMP180;7912;51.376;6.126;2023-05-07T08:46:09;101289.00;;;29.70
15626;BMP180;7912;51.376;6.126;2023-05-07T08:48:38;101297.00;;;30.00
15626;BMP180;7912;51.376;6.126;2023-05-07T08:51:08;101300.00;;;30.30
15626;BMP180;7912;51.376;6.126;2023-05-07T08:53:36;101301.00;;;30.50
15626;BMP180;7912;51.376;6.126;2023-05-07T08:56:04;101301.00;;;30.80
15626;BMP180;7912;51.376;6.126;2023-05-07T08:58:33;101295.00;;;30.90
15626;BMP180;7912;51.376;6.126;2023-05-07T09:01:07;101293.00;;;31.00
15626;BMP180;7912;51.376;6.126;2023-05-07T09:03:38;101288.00;;;31.20
15626;BMP180;7912;51.376;6.126;2023-05-07T09:06:06;101286.00;;;31.50
15626;BMP180;7912;51.376;6.126;2023-05-07T09:08:35;101299.00;;;31.60
15626;BMP180;7912;51.376;6.126;2023-05-07T09:11:03;101306.00;;;31.60
15626;BMP180;7912;51.376;6.126;2023-05-07T09:13:30;101301.00;;;31.60
15626;BMP180;7912;51.376;6.126;2023-05-07T09:15:58;101305.00;;;31.80
15626;BMP180;7912;51.376;6.126;2023-05-07T09:18:25;101304.00;;;32.40
15626;BMP180;7912;51.376;6.126;2023-05-07T09:20:52;101302.00;;;32.80
15626;BMP180;7912;51.376;6.126;2023-05-07T09:23:20;101303.00;;;32.70
15626;BMP180;7912;51.376;6.126;2023-05-07T09:25:48;101301.00;;;32.40
15626;BMP180;7912;51.376;6.126;2023-05-07T09:28:15;101310.00;;;31.90
15626;BMP180;7912;51.376;6.126;2023-05-07T09:30:42;101305.00;;;31.60
15626;BMP180;7912;51.376;6.126;2023-05-07T09:33:10;101301.00;;;31.40
15626;BMP180;7912;51.376;6.126;2023-05-07T09:35:40;101301.00;;;31.20
15626;BMP180;7912;51.376;6.126;2023-05-07T09:38:08;101298.00;;;31.10
15626;BMP180;7912;51.376;6.126;2023-05-07T09:40:35;101306.00;;;31.10
15626;BMP180;7912;51.376;6.126;2023-05-07T09:43:13;101308.00;;;31.10
15626;BMP180;7912;51.376;6.126;2023-05-07T09:46:20;101305.00;;;30.90
15626;BMP180;7912;51.376;6.126;2023-05-07T09:48:59;101300.00;;;30.80
15626;BMP180;7912;51.376;6.126;2023-05-07T09:51:51;101300.00;;;30.80
15626;BMP180;7912;51.376;6.126;2023-05-07T09:54:19;101297.00;;;31.00
15626;BMP180;7912;51.376;6.126;2023-05-07T09:56:48;101301.00;;;31.30
15626;BMP180;7912;51.376;6.126;2023-05-07T09:59:42;101299.00;;;31.70
15626;BMP180;7912;51.376;6.126;2023-05-07T10:02:10;101294.00;;;32.10
15626;BMP180;7912;51.376;6.126;2023-05-07T10:04:39;101289.00;;;32.40
15626;BMP180;7912;51.376;6.126;2023-05-07T10:07:10;101303.00;;;32.60
15626;BMP180;7912;51.376;6.126;2023-05-07T10:13:20;101303.00;;;32.70
15626;BMP180;7912;51.376;6.126;2023-05-07T10:19:12;101306.00;;;32.50
15626;BMP180;7912;51.376;6.126;2023-05-07T10:21:50;101305.00;;;32.20
15626;BMP180;7912;51.376;6.126;2023-05-07T10:27:47;101302.00;;;32.00
15626;BMP180;7912;51.376;6.126;2023-05-07T10:33:11;101296.00;;;31.80
15626;BMP180;7912;51.376;6.126;2023-05-07T10:35:46;101302.00;;;31.90
15626;BMP180;7912;51.376;6.126;2023-05-07T10:38:14;101299.00;;;32.00
15626;BMP180;7912;51.376;6.126;2023-05-07T10:40:43;101295.00;;;32.20
15626;BMP180;7912;51.376;6.126;2023-05-07T10:43:14;101305.00;;;32.30
15626;BMP180;7912;51.376;6.126;2023-05-07T10:46:18;101306.00;;;32.30
15626;BMP180;7912;51.376;6.126;2023-05-07T10:51:34;101304.00;;;32.40
15626;BMP180;7912;51.376;6.126;2023-05-07T10:56:40;101313.00;;;32.60
15626;BMP180;7912;51.376;6.126;2023-05-07T11:04:25;101308.00;;;32.90
15626;BMP180;7912;51.376;6.126;2023-05-07T11:09:59;101312.00;;;33.20
15626;BMP180;7912;51.376;6.126;2023-05-07T11:15:11;101299.00;;;33.60
15626;BMP180;7912;51.376;6.126;2023-05-07T11:17:59;101308.00;;;34.10
15626;BMP180;7912;51.376;6.126;2023-05-07T11:24:10;101298.00;;;34.80
15626;BMP180;7912;51.376;6.126;2023-05-07T11:26:49;101302.00;;;34.80
15626;BMP180;7912;51.376;6.126;2023-05-07T11:29:21;101300.00;;;34.70
15626;BMP180;7912;51.376;6.126;2023-05-07T11:31:54;101309.00;;;34.60
15626;BMP180;7912;51.376;6.126;2023-05-07T11:34:26;101306.00;;;34.30
15626;BMP180;7912;51.376;6.126;2023-05-07T11:41:04;101309.00;;;33.40
15626;BMP180;7912;51.376;6.126;2023-05-07T11:43:34;101315.00;;;33.10
15626;BMP180;7912;51.376;6.126;2023-05-07T11:46:10;101317.00;;;33.00
15626;BMP180;7912;51.376;6.126;2023-05-07T11:48:38;101315.00;;;32.80
15626;BMP180;7912;51.376;6.126;2023-05-07T11:55:18;101333.00;;;32.60
15626;BMP180;7912;51.376;6.126;2023-05-07T11:57:47;101331.00;;;32.50
15626;BMP180;7912;51.376;6.126;2023-05-07T12:00:16;101331.00;;;32.60
15626;BMP180;7912;51.376;6.126;2023-05-07T12:02:45;101335.00;;;32.50
15626;BMP180;7912;51.376;6.126;2023-05-07T12:05:17;101335.00;;;32.60
15626;BMP180;7912;51.376;6.126;2023-05-07T12:07:45;101332.00;;;32.70
15626;BMP180;7912;51.376;6.126;2023-05-07T12:10:12;101321.00;;;32.70
15626;BMP180;7912;51.376;6.126;2023-05-07T12:12:46;101338.00;;;32.70
15626;BMP180;7912;51.376;6.126;2023-05-07T12:15:17;101333.00;;;32.60
15626;BMP180;7912;51.376;6.126;2023-05-07T12:17:49;101328.00;;;32.70
15626;BMP180;7912;51.376;6.126;2023-05-07T12:24:17;101330.00;;;33.90
15626;BMP180;7912;51.376;6.126;2023-05-07T12:26:48;101324.00;;;34.10
15626;BMP180;7912;51.376;6.126;2023-05-07T12:29:16;101316.00;;;34.20
15626;BMP180;7912;51.376;6.126;2023-05-07T12:31:43;101327.00;;;34.30
15626;BMP180;7912;51.376;6.126;2023-05-07T12:34:11;101328.00;;;34.30
15626;BMP180;7912;51.376;6.126;2023-05-07T12:36:40;101326.00;;;34.30
15626;BMP180;7912;51.376;6.126;2023-05-07T12:39:08;101328.00;;;34.20
15626;BMP180;7912;51.376;6.126;2023-05-07T12:41:57;101336.00;;;34.10
15626;BMP180;7912;51.376;6.126;2023-05-07T12:44:32;101333.00;;;33.80
15626;BMP180;7912;51.376;6.126;2023-05-07T12:50:51;101349.00;;;33.00
15626;BMP180;7912;51.376;6.126;2023-05-07T12:53:22;101356.00;;;32.90
15626;BMP180;7912;51.376;6.126;2023-05-07T12:55:57;101351.00;;;32.70
15626;BMP180;7912;51.376;6.126;2023-05-07T12:58:32;101359.00;;;32.60
15626;BMP180;7912;51.376;6.126;2023-05-07T13:01:18;101357.00;;;32.40
15626;BMP180;7912;51.376;6.126;2023-05-07T13:03:48;101363.00;;;32.10
15626;BMP180;7912;51.376;6.126;2023-05-07T13:06:17;101359.00;;;31.70
15626;BMP180;7912;51.376;6.126;2023-05-07T13:08:44;101359.00;;;31.50
15626;BMP180;7912;51.376;6.126;2023-05-07T13:11:13;101368.00;;;31.30
15626;BMP180;7912;51.376;6.126;2023-05-07T13:13:41;101366.00;;;31.00
15626;BMP180;7912;51.376;6.126;2023-05-07T13:16:11;101377.00;;;30.80
15626;BMP180;7912;51.376;6.126;2023-05-07T13:18:40;101372.00;;;30.60
15626;BMP180;7912;51.376;6.126;2023-05-07T13:21:08;101364.00;;;30.40
15626;BMP180;7912;51.376;6.126;2023-05-07T13:23:37;101368.00;;;30.30
15626;BMP180;7912;51.376;6.126;2023-05-07T13:26:10;101382.00;;;30.10
15626;BMP180;7912;51.376;6.126;2023-05-07T13:28:55;101383.00;;;29.90
15626;BMP180;7912;51.376;6.126;2023-05-07T13:31:23;101382.00;;;29.70
15626;BMP180;7912;51.376;6.126;2023-05-07T13:33:51;101387.00;;;29.60
15626;BMP180;7912;51.376;6.126;2023-05-07T13:36:57;101394.00;;;29.50
15626;BMP180;7912;51.376;6.126;2023-05-07T13:39:24;101399.00;;;29.50
15626;BMP180;7912;51.376;6.126;2023-05-07T13:41:52;101393.00;;;29.50
15626;BMP180;7912;51.376;6.126;2023-05-07T13:44:19;101397.00;;;29.50
15626;BMP180;7912;51.376;6.126;2023-05-07T13:46:47;101399.00;;;29.50
15626;BMP180;7912;51.376;6.126;2023-05-07T13:49:15;101400.00;;;29.40
15626;BMP180;7912;51.376;6.126;2023-05-07T13:51:42;101401.00;;;29.40
15626;BMP180;7912;51.376;6.126;2023-05-07T13:54:09;101395.00;;;29.40
15626;BMP180;7912;51.376;6.126;2023-05-07T13:56:37;101410.00;;;29.40
15626;BMP180;7912;51.376;6.126;2023-05-07T13:59:04;101409.00;;;29.40
15626;BMP180;7912;51.376;6.126;2023-05-07T14:01:32;101422.00;;;29.20
15626;BMP180;7912;51.376;6.126;2023-05-07T14:03:59;101418.00;;;28.90
15626;BMP180;7912;51.376;6.126;2023-05-07T14:10:37;101435.00;;;27.70
15626;BMP180;7912;51.376;6.126;2023-05-07T14:13:05;101419.00;;;27.30
15626;BMP180;7912;51.376;6.126;2023-05-07T14:15:32;101426.00;;;27.00
15626;BMP180;7912;51.376;6.126;2023-05-07T14:18:00;101428.00;;;26.60
15626;BMP180;7912;51.376;6.126;2023-05-07T14:20:27;101429.00;;;26.30
15626;BMP180;7912;51.376;6.126;2023-05-07T14:22:55;101428.00;;;26.00
15626;BMP180;7912;51.376;6.126;2023-05-07T14:29:07;101435.00;;;25.50
15626;BMP180;7912;51.376;6.126;2023-05-07T14:31:34;101432.00;;;25.40
15626;BMP180;7912;51.376;6.126;2023-05-07T14:34:02;101438.00;;;25.40
15626;BMP180;7912;51.376;6.126;2023-05-07T14:36:29;101433.00;;;25.40
15626;BMP180;7912;51.376;6.126;2023-05-07T14:38:58;101432.00;;;25.50
15626;BMP180;7912;51.376;6.126;2023-05-07T14:41:26;101429.00;;;25.60
15626;BMP180;7912;51.376;6.126;2023-05-07T14:43:53;101419.00;;;25.70
15626;BMP180;7912;51.376;6.126;2023-05-07T14:46:21;101426.00;;;25.90
15626;BMP180;7912;51.376;6.126;2023-05-07T14:48:48;101419.00;;;25.90
15626;BMP180;7912;51.376;6.126;2023-05-07T14:51:15;101420.00;;;25.90
15626;BMP180;7912;51.376;6.126;2023-05-07T14:53:44;101424.00;;;25.70
15626;BMP180;7912;51.376;6.126;2023-05-07T14:56:12;101422.00;;;25.60
15626;BMP180;7912;51.376;6.126;2023-05-07T15:02:49;101424.00;;;25.60
15626;BMP180;7912;51.376;6.126;2023-05-07T15:05:16;101425.00;;;25.80
15626;BMP180;7912;51.376;6.126;2023-05-07T15:07:46;101430.00;;;26.00
15626;BMP180;7912;51.376;6.126;2023-05-07T15:10:13;101421.00;;;26.20
15626;BMP180;7912;51.376;6.126;2023-05-07T15:12:40;101419.00;;;26.50
15626;BMP180;7912;51.376;6.126;2023-05-07T15:15:08;101422.00;;;26.70
15626;BMP180;7912;51.376;6.126;2023-05-07T15:17:36;101424.00;;;26.80
15626;BMP180;7912;51.376;6.126;2023-05-07T15:24:14;101422.00;;;27.50
15626;BMP180;7912;51.376;6.126;2023-05-07T15:26:41;101413.00;;;27.90
15626;BMP180;7912;51.376;6.126;2023-05-07T15:29:09;101428.00;;;28.20
15626;BMP180;7912;51.376;6.126;2023-05-07T15:31:37;101419.00;;;28.30
15626;BMP180;7912;51.376;6.126;2023-05-07T15:34:06;101429.00;;;28.20
15626;BMP180;7912;51.376;6.126;2023-05-07T15:36:33;101431.00;;;28.10
15626;BMP180;7912;51.376;6.126;2023-05-07T15:39:02;101424.00;;;28.20
15626;BMP180;7912;51.376;6.126;2023-05-07T15:45:42;101435.00;;;28.50
15626;BMP180;7912;51.376;6.126;2023-05-07T15:48:10;101423.00;;;28.70
15626;BMP180;7912;51.376;6.126;2023-05-07T15:50:37;101417.00;;;28.80
15626;BMP180;7912;51.376;6.126;2023-05-07T15:53:05;101428.00;;;28.90
15626;BMP180;7912;51.376;6.126;2023-05-07T15:55:32;101420.00;;;29.10
15626;BMP180;7912;51.376;6.126;2023-05-07T16:05:52;101432.00;;;28.70
15626;BMP180;7912;51.376;6.126;2023-05-07T16:08:20;101428.00;;;28.60
15626;BMP180;7912;51.376;6.126;2023-05-07T16:10:47;101433.00;;;28.60
15626;BMP180;7912;51.376;6.126;2023-05-07T16:13:15;101424.00;;;28.60